createdAt,value
2023-03-11T00:00:49.015Z,97128.09
2023-03-11T00:03:19.235Z,97127.78
2023-03-11T00:05:47.895Z,97117.47
2023-03-11T00:08:18.746Z,97127.06
2023-03-11T00:10:48.584Z,97123.69
2023-03-11T00:13:17.116Z,97122.84
2023-03-11T00:15:48.838Z,97128.78
2023-03-11T00:18:18.125Z,97129.53
2023-03-11T00:20:47.267Z,97118.22
2023-03-11T00:23:16.070Z,97122.84
2023-03-11T00:25:46.226Z,97116.81
2023-03-11T00:28:15.539Z,97120.13
2023-03-11T00:30:44.820Z,97123.78
2023-03-11T00:33:15.902Z,97115.50
2023-03-11T00:35:45.013Z,97123.44
2023-03-11T00:38:16.127Z,97121.53
2023-03-11T00:40:46.548Z,97141.34
2023-03-11T00:43:15.909Z,97138.38
2023-03-11T00:45:44.070Z,97130.56
2023-03-11T00:48:13.165Z,97143.16
2023-03-11T00:50:42.283Z,97141.69
2023-03-11T00:53:10.624Z,97138.91
2023-03-11T00:55:38.767Z,97151.75
2023-03-11T00:58:08.036Z,97141.75
2023-03-11T01:00:36.816Z,97151.22
2023-03-11T01:03:05.120Z,97139.84
2023-03-11T01:05:34.759Z,97140.97
2023-03-11T01:08:04.430Z,97140.25
2023-03-11T01:10:33.894Z,97140.59
2023-03-11T01:13:03.488Z,97136.94
2023-03-11T01:15:34.441Z,97144.22
2023-03-11T01:18:03.460Z,97135.00
2023-03-11T01:20:33.240Z,97137.25
2023-03-11T01:23:01.316Z,97124.22
2023-03-11T01:25:30.127Z,97128.13
2023-03-11T01:27:59.736Z,97128.37
2023-03-11T01:30:29.011Z,97122.66
2023-03-11T01:32:58.368Z,97122.91
2023-03-11T01:35:28.349Z,97139.16
2023-03-11T01:37:56.857Z,97132.34
2023-03-11T01:40:33.342Z,97137.47
2023-03-11T01:43:03.502Z,97134.59
2023-03-11T01:45:36.568Z,97122.84
2023-03-11T01:48:05.030Z,97134.47
2023-03-11T01:50:37.539Z,97128.78
2023-03-11T01:53:06.169Z,97127.50
2023-03-11T01:55:34.794Z,97131.75
2023-03-11T01:58:06.816Z,97136.75
2023-03-11T02:00:36.761Z,97121.47
2023-03-11T02:03:19.906Z,97122.63
2023-03-11T02:05:48.155Z,97126.87
2023-03-11T02:08:16.628Z,97143.97
2023-03-11T02:10:45.127Z,97144.72
2023-03-11T02:13:16.006Z,97140.31
2023-03-11T02:15:44.952Z,97131.75
2023-03-11T02:18:18.877Z,97134.59
2023-03-11T02:21:08.741Z,97124.59
2023-03-11T02:23:46.160Z,97121.66
2023-03-11T02:26:31.074Z,97125.38
2023-03-11T02:28:59.829Z,97115.69
2023-03-11T02:31:29.146Z,97117.12
2023-03-11T02:33:58.431Z,97130.22
2023-03-11T02:36:41.552Z,97128.50
2023-03-11T02:39:10.276Z,97118.22
2023-03-11T02:41:42.567Z,97130.06
2023-03-11T02:44:12.386Z,97135.59
2023-03-11T02:46:42.017Z,97132.94
2023-03-11T02:49:10.788Z,97144.56
2023-03-11T02:51:39.416Z,97145.00
2023-03-11T02:54:08.006Z,97140.75
2023-03-11T02:56:36.619Z,97146.44
2023-03-11T02:59:04.705Z,97160.78
2023-03-11T03:01:33.445Z,97158.66
2023-03-11T03:04:01.867Z,97155.12
2023-03-11T03:06:32.805Z,97161.19
2023-03-11T03:09:01.466Z,97147.91
2023-03-11T03:11:29.764Z,97160.13
2023-03-11T03:13:58.085Z,97166.53
2023-03-11T03:16:26.990Z,97175.34
2023-03-11T03:18:55.483Z,97177.75
2023-03-11T03:21:23.657Z,97180.37
2023-03-11T03:23:52.536Z,97199.81
2023-03-11T03:26:20.679Z,97164.94
2023-03-11T03:28:49.326Z,97181.97
2023-03-11T03:31:18.509Z,97188.47
2023-03-11T03:33:46.890Z,97191.59
2023-03-11T03:36:16.064Z,97193.34
2023-03-11T03:38:45.009Z,97204.81
2023-03-11T03:41:16.095Z,97187.00
2023-03-11T03:43:45.403Z,97179.97
2023-03-11T03:46:14.192Z,97194.16
2023-03-11T03:48:42.954Z,97195.97
2023-03-11T03:51:13.459Z,97182.25
2023-03-11T03:53:42.519Z,97196.47
2023-03-11T03:56:12.590Z,97179.59
2023-03-11T03:58:41.489Z,97198.41
2023-03-11T04:01:11.483Z,97188.56
2023-03-11T04:03:40.659Z,97188.34
2023-03-11T04:06:18.046Z,97194.94
2023-03-11T04:08:47.393Z,97191.56
2023-03-11T04:11:16.193Z,97206.00
2023-03-11T04:13:45.064Z,97203.34
2023-03-11T04:16:20.423Z,97211.75
2023-03-11T04:18:48.765Z,97227.59
2023-03-11T04:21:17.984Z,97218.78
2023-03-11T04:23:46.593Z,97226.03
2023-03-11T04:26:15.262Z,97235.38
2023-03-11T04:28:43.743Z,97220.81
2023-03-11T04:31:12.832Z,97223.00
2023-03-11T04:33:41.030Z,97230.09
2023-03-11T04:36:10.497Z,97215.09
2023-03-11T04:38:39.492Z,97218.91
2023-03-11T04:41:08.532Z,97210.06
2023-03-11T04:43:37.795Z,97196.50
2023-03-11T04:46:06.125Z,97208.09
2023-03-11T04:48:34.832Z,97185.19
2023-03-11T04:51:03.453Z,97207.41
2023-03-11T04:53:31.592Z,97199.62
2023-03-11T04:56:00.041Z,97213.81
2023-03-11T04:58:28.740Z,97230.06
2023-03-11T05:00:56.997Z,97222.62
2023-03-11T05:03:25.719Z,97201.94
2023-03-11T05:05:56.976Z,97202.19
2023-03-11T05:08:26.436Z,97188.59
2023-03-11T05:10:55.094Z,97195.94
2023-03-11T05:13:23.533Z,97168.84
2023-03-11T05:15:52.585Z,97196.78
2023-03-11T05:18:21.819Z,97201.28
2023-03-11T05:20:50.165Z,97223.69
2023-03-11T05:23:18.855Z,97183.97
2023-03-11T05:25:47.416Z,97240.78
2023-03-11T05:28:15.723Z,97227.47
2023-03-11T05:30:44.927Z,97242.50
2023-03-11T05:33:13.702Z,97244.47
2023-03-11T05:35:43.140Z,97250.34
2023-03-11T05:38:15.192Z,97254.31
2023-03-11T05:40:46.006Z,97261.38
2023-03-11T05:43:14.226Z,97286.34
2023-03-11T05:45:42.986Z,97266.47
2023-03-11T05:48:12.910Z,97289.59
2023-03-11T05:50:41.209Z,97272.56
2023-03-11T05:53:09.546Z,97231.97
2023-03-11T05:55:38.542Z,97283.38
2023-03-11T05:58:07.056Z,97254.38
2023-03-11T06:00:35.256Z,97247.53
2023-03-11T06:03:04.595Z,97256.06
2023-03-11T06:05:32.927Z,97268.88
2023-03-11T06:08:01.226Z,97264.00
2023-03-11T06:10:30.077Z,97270.50
2023-03-11T06:12:58.182Z,97276.88
2023-03-11T06:15:26.806Z,97281.31
2023-03-11T06:17:55.563Z,97266.19
2023-03-11T06:20:23.792Z,97293.09
2023-03-11T06:22:52.575Z,97289.06
2023-03-11T06:25:22.292Z,97317.72
2023-03-11T06:27:52.776Z,97323.13
2023-03-11T06:30:22.032Z,97336.28
2023-03-11T06:32:52.404Z,97345.94
2023-03-11T06:35:21.343Z,97338.19
2023-03-11T06:37:49.905Z,97354.19
2023-03-11T06:40:18.974Z,97367.22
2023-03-11T06:42:48.114Z,97368.94
2023-03-11T06:45:18.856Z,97385.34
2023-03-11T06:47:48.483Z,97398.00
2023-03-11T06:50:17.675Z,97392.00
2023-03-11T06:52:45.893Z,97379.59
2023-03-11T06:55:14.506Z,97406.03
2023-03-11T06:57:44.989Z,97371.37
2023-03-11T07:00:14.684Z,97403.19
2023-03-11T07:02:43.678Z,97404.56
2023-03-11T07:05:12.926Z,97394.09
2023-03-11T07:07:41.377Z,97410.34
2023-03-11T07:10:11.365Z,97425.00
2023-03-11T07:12:39.645Z,97413.59
2023-03-11T07:15:08.771Z,97409.59
2023-03-11T07:17:37.468Z,97400.75
2023-03-11T07:20:06.296Z,97410.53
2023-03-11T07:22:34.508Z,97406.25
2023-03-11T07:25:03.091Z,97399.25
2023-03-11T07:27:31.282Z,97408.94
2023-03-11T07:30:01.853Z,97407.22
2023-03-11T07:32:30.497Z,97404.19
2023-03-11T07:34:58.595Z,97386.47
2023-03-11T07:37:26.777Z,97384.22
2023-03-11T07:39:55.412Z,97392.09
2023-03-11T07:42:23.623Z,97364.56
2023-03-11T07:44:53.564Z,97376.56
2023-03-11T07:47:22.180Z,97374.06
2023-03-11T07:49:50.335Z,97357.38
2023-03-11T07:52:18.544Z,97383.28
2023-03-11T07:54:47.605Z,97388.78
2023-03-11T07:57:17.443Z,97389.69
2023-03-11T07:59:45.606Z,97393.50
2023-03-11T08:02:14.261Z,97386.97
2023-03-11T08:04:43.020Z,97364.44
2023-03-11T08:07:11.267Z,97354.81
2023-03-11T08:09:39.425Z,97356.41
2023-03-11T08:12:08.555Z,97380.50
2023-03-11T08:14:37.014Z,97369.41
2023-03-11T08:17:05.544Z,97400.25
2023-03-11T08:19:34.122Z,97410.63
2023-03-11T08:22:04.085Z,97438.41
2023-03-11T08:24:32.411Z,97420.13
2023-03-11T08:27:01.167Z,97403.19
2023-03-11T08:29:29.388Z,97400.84
2023-03-11T08:31:57.534Z,97377.00
2023-03-11T08:34:27.898Z,97375.62
2023-03-11T08:36:56.368Z,97368.19
2023-03-11T08:39:24.536Z,97355.56
2023-03-11T08:41:53.209Z,97365.81
2023-03-11T08:44:21.433Z,97368.84
2023-03-11T08:46:49.631Z,97378.25
2023-03-11T08:49:18.104Z,97391.38
2023-03-11T08:51:46.315Z,97427.56
2023-03-11T08:54:14.453Z,97395.56
2023-03-11T08:56:42.987Z,97411.97
2023-03-11T08:59:11.808Z,97418.28
2023-03-11T09:01:40.119Z,97412.44
2023-03-11T09:04:08.957Z,97424.91
2023-03-11T09:06:37.184Z,97432.31
2023-03-11T09:09:05.544Z,97422.47
2023-03-11T09:11:37.756Z,97428.91
2023-03-11T09:14:05.996Z,97440.66
2023-03-11T09:16:35.115Z,97450.00
2023-03-11T09:19:07.862Z,97472.25
2023-03-11T09:21:37.956Z,97478.13
2023-03-11T09:24:06.721Z,97488.78
2023-03-11T09:26:35.464Z,97488.31
2023-03-11T09:29:04.216Z,97501.28
2023-03-11T09:31:32.579Z,97515.22
2023-03-11T09:34:01.015Z,97510.28
2023-03-11T09:36:29.694Z,97526.28
2023-03-11T09:38:58.006Z,97507.09
2023-03-11T09:41:45.095Z,97514.53
2023-03-11T09:44:34.845Z,97502.63
2023-03-11T09:47:25.236Z,97513.56
2023-03-11T09:50:06.748Z,97519.16
2023-03-11T09:53:03.126Z,97530.22
2023-03-11T09:56:04.848Z,97512.19
2023-03-11T09:58:40.763Z,97530.34
2023-03-11T10:01:37.736Z,97515.56
2023-03-11T10:04:31.569Z,97540.78
2023-03-11T10:07:01.895Z,97529.53
2023-03-11T10:09:44.399Z,97546.34
2023-03-11T10:12:29.708Z,97535.34
2023-03-11T10:15:23.653Z,97541.28
2023-03-11T10:17:53.249Z,97535.56
2023-03-11T10:20:34.984Z,97558.50
2023-03-11T10:23:18.323Z,97578.53
2023-03-11T10:25:55.790Z,97578.53
2023-03-11T10:28:37.946Z,97603.97
2023-03-11T10:31:22.373Z,97625.19
2023-03-11T10:34:02.077Z,97636.84
2023-03-11T10:36:38.816Z,97646.03
2023-03-11T10:39:07.114Z,97656.19
2023-03-11T10:41:56.113Z,97652.84
2023-03-11T10:44:39.478Z,97637.19
2023-03-11T10:47:16.174Z,97639.50
2023-03-11T10:49:44.698Z,97624.81
2023-03-11T10:52:13.967Z,97627.75
2023-03-11T10:54:48.245Z,97633.94
2023-03-11T10:57:37.717Z,97620.94
2023-03-11T11:00:17.605Z,97629.75
2023-03-11T11:03:00.153Z,97617.81
2023-03-11T11:05:35.769Z,97611.47
2023-03-11T11:08:07.930Z,97584.09
2023-03-11T11:10:37.264Z,97613.38
2023-03-11T11:13:08.843Z,97607.53
2023-03-11T11:15:52.751Z,97620.16
2023-03-11T11:18:39.839Z,97621.53
2023-03-11T11:21:29.700Z,97624.03
2023-03-11T11:24:24.073Z,97631.75
2023-03-11T11:27:17.972Z,97628.47
2023-03-11T11:29:47.843Z,97637.34
2023-03-11T11:32:17.644Z,97648.56
2023-03-11T11:35:06.672Z,97618.09
2023-03-11T11:37:44.826Z,97644.75
2023-03-11T11:40:16.136Z,97635.66
2023-03-11T11:42:52.836Z,97670.50
2023-03-11T11:45:43.695Z,97656.34
2023-03-11T11:48:23.785Z,97678.44
2023-03-11T11:50:54.443Z,97658.59
2023-03-11T11:53:35.598Z,97675.19
2023-03-11T11:56:03.972Z,97680.03
2023-03-11T11:58:32.655Z,97701.53
2023-03-11T12:01:20.383Z,97695.84
2023-03-11T12:04:20.925Z,97706.63
2023-03-11T12:07:09.078Z,97680.19
2023-03-11T12:09:52.936Z,97682.78
2023-03-11T12:12:42.775Z,97682.53
2023-03-11T12:15:16.496Z,97700.22
2023-03-11T12:17:47.956Z,97692.28
2023-03-11T12:20:33.843Z,97692.25
2023-03-11T12:23:28.304Z,97693.66
2023-03-11T12:26:27.527Z,97694.84
2023-03-11T12:28:59.345Z,97678.72
2023-03-11T12:31:31.814Z,97665.12
2023-03-11T12:34:04.189Z,97678.00
2023-03-11T12:36:36.045Z,97688.09
2023-03-11T12:39:06.628Z,97670.84
2023-03-11T12:41:39.159Z,97669.34
2023-03-11T12:44:13.212Z,97671.34
2023-03-11T12:47:00.015Z,97672.06
2023-03-11T12:49:32.586Z,97661.44
2023-03-11T12:52:16.183Z,97642.94
2023-03-11T12:54:46.121Z,97679.53
2023-03-11T12:57:20.470Z,97651.25
2023-03-11T13:00:23.387Z,97668.84
2023-03-11T13:03:10.549Z,97660.09
2023-03-11T13:05:56.679Z,97700.97
2023-03-11T13:08:52.032Z,97691.72
2023-03-11T13:11:49.919Z,97704.88
2023-03-11T13:14:31.332Z,97726.97
2023-03-11T13:17:26.099Z,97732.28
2023-03-11T13:19:58.717Z,97745.06
2023-03-11T13:22:56.553Z,97757.97
2023-03-11T13:25:31.902Z,97756.66
2023-03-11T13:28:17.918Z,97750.25
2023-03-11T13:30:59.702Z,97757.50
2023-03-11T13:33:42.887Z,97767.22
2023-03-11T13:36:23.484Z,97767.66
2023-03-11T13:39:29.234Z,97749.06
2023-03-11T13:41:57.870Z,97781.66
2023-03-11T13:44:34.438Z,97782.22
2023-03-11T13:47:17.336Z,97789.06
2023-03-11T13:50:08.812Z,97795.97
2023-03-11T13:52:43.991Z,97799.69
2023-03-11T13:55:24.004Z,97817.97
2023-03-11T13:57:56.796Z,97832.66
2023-03-11T14:00:28.891Z,97824.47
2023-03-11T14:03:03.929Z,97835.56
2023-03-11T14:05:34.372Z,97839.06
2023-03-11T14:08:39.558Z,97848.31
2023-03-11T14:11:14.839Z,97853.47
2023-03-11T14:13:50.158Z,97851.87
2023-03-11T14:16:18.373Z,97855.16
2023-03-11T14:18:48.884Z,97868.75
2023-03-11T14:21:19.528Z,97880.00
2023-03-11T14:23:52.787Z,97879.78
2023-03-11T14:26:33.438Z,97905.91
2023-03-11T14:29:08.705Z,97893.09
2023-03-11T14:31:39.186Z,97898.69
2023-03-11T14:34:10.680Z,97912.72
2023-03-11T14:36:42.539Z,97907.38
2023-03-11T14:39:31.534Z,97913.44
2023-03-11T14:42:20.799Z,97924.03
2023-03-11T14:45:03.271Z,97921.16
2023-03-11T14:48:01.466Z,97915.16
2023-03-11T14:50:33.042Z,97928.16
2023-03-11T14:53:17.904Z,97929.06
2023-03-11T14:56:06.823Z,97924.75
2023-03-11T14:58:37.752Z,97951.22
2023-03-11T15:01:19.841Z,97918.72
2023-03-11T15:03:59.431Z,97936.81
2023-03-11T15:06:32.749Z,97933.41
2023-03-11T15:09:14.186Z,97954.91
2023-03-11T15:11:52.446Z,97940.69
2023-03-11T15:14:27.234Z,97969.81
2023-03-11T15:16:56.910Z,97956.25
2023-03-11T15:19:29.935Z,97961.00
2023-03-11T15:22:02.493Z,97974.25
2023-03-11T15:24:33.076Z,97981.94
2023-03-11T15:27:07.686Z,97988.34
2023-03-11T15:29:37.154Z,97988.66
2023-03-11T15:32:27.387Z,97986.16
2023-03-11T15:35:19.809Z,97995.72
2023-03-11T15:37:49.938Z,98001.44
2023-03-11T15:40:43.976Z,97997.22
2023-03-11T15:43:21.435Z,98003.31
2023-03-11T15:45:50.199Z,98009.38
2023-03-11T15:48:18.740Z,98014.59
2023-03-11T15:50:53.206Z,98026.06
2023-03-11T15:53:24.523Z,98020.06
2023-03-11T15:55:54.093Z,98021.13
2023-03-11T15:58:22.557Z,98029.44
2023-03-11T16:00:56.771Z,98033.78
2023-03-11T16:03:25.529Z,98040.91
2023-03-11T16:05:55.694Z,98051.44
2023-03-11T16:08:23.973Z,98057.53
2023-03-11T16:10:52.529Z,98058.50
2023-03-11T16:13:20.903Z,98069.50
2023-03-11T16:15:50.950Z,98058.34
2023-03-11T16:18:19.671Z,98073.25
2023-03-11T16:20:51.093Z,98076.91
2023-03-11T16:23:44.835Z,98081.13
2023-03-11T16:26:18.687Z,98089.69
2023-03-11T16:28:47.128Z,98096.56
2023-03-11T16:31:15.280Z,98107.81
2023-03-11T16:33:43.418Z,98100.00
2023-03-11T16:36:12.235Z,98108.00
2023-03-11T16:38:47.137Z,98108.75
2023-03-11T16:41:16.591Z,98105.53
2023-03-11T16:43:44.944Z,98099.31
2023-03-11T16:46:13.179Z,98113.13
2023-03-11T16:48:41.659Z,98108.91
2023-03-11T16:51:09.974Z,98114.06
2023-03-11T16:53:38.093Z,98127.06
2023-03-11T16:56:07.316Z,98132.88
2023-03-11T16:58:35.593Z,98133.06
2023-03-11T17:01:03.967Z,98144.25
2023-03-11T17:03:41.940Z,98137.38
2023-03-11T17:06:10.999Z,98160.56
2023-03-11T17:08:39.683Z,98156.19
2023-03-11T17:11:15.233Z,98169.13
2023-03-11T17:13:44.017Z,98167.44
2023-03-11T17:16:12.789Z,98174.31
2023-03-11T17:18:42.966Z,98165.81
2023-03-11T17:21:13.778Z,98181.19
2023-03-11T17:23:42.010Z,98182.97
2023-03-11T17:26:17.416Z,98181.25
2023-03-11T17:28:46.327Z,98188.09
2023-03-11T17:31:16.616Z,98198.34
2023-03-11T17:33:45.594Z,98205.28
2023-03-11T17:36:16.393Z,98208.69
2023-03-11T17:38:45.565Z,98220.69
2023-03-11T17:41:16.336Z,98219.84
2023-03-11T17:43:45.154Z,98234.44
2023-03-11T17:46:16.048Z,98243.84
2023-03-11T17:48:45.907Z,98239.53
2023-03-11T17:51:17.104Z,98245.59
2023-03-11T17:53:46.182Z,98242.97
2023-03-11T17:56:16.925Z,98242.19
2023-03-11T17:58:45.236Z,98252.50
2023-03-11T18:01:26.051Z,98254.19
2023-03-11T18:03:55.239Z,98260.22
2023-03-11T18:06:23.980Z,98253.34
2023-03-11T18:08:52.851Z,98255.06
2023-03-11T18:11:23.783Z,98262.81
2023-03-11T18:13:52.232Z,98267.97
2023-03-11T18:16:23.073Z,98279.13
2023-03-11T18:18:52.501Z,98279.16
2023-03-11T18:21:25.923Z,98273.09
2023-03-11T18:23:55.915Z,98299.75
2023-03-11T18:26:25.539Z,98291.13
2023-03-11T18:28:54.802Z,98295.47
2023-03-11T18:31:24.256Z,98305.75
2023-03-11T18:33:54.908Z,98303.19
2023-03-11T18:36:25.811Z,98319.47
2023-03-11T18:38:55.104Z,98306.59
2023-03-11T18:41:24.888Z,98322.91
2023-03-11T18:43:54.502Z,98325.47
2023-03-11T18:46:22.717Z,98334.03
2023-03-11T18:48:53.792Z,98340.94
2023-03-11T18:51:21.886Z,98330.66
2023-03-11T18:53:49.937Z,98323.75
2023-03-11T18:56:18.643Z,98334.03
2023-03-11T18:58:47.151Z,98336.62
2023-03-11T19:01:18.138Z,98330.63
2023-03-11T19:03:51.763Z,98349.50
2023-03-11T19:06:19.981Z,98328.91
2023-03-11T19:08:49.012Z,98348.63
2023-03-11T19:11:21.829Z,98354.63
2023-03-11T19:13:50.566Z,98346.06
2023-03-11T19:16:22.140Z,98359.72
2023-03-11T19:18:51.638Z,98352.94
2023-03-11T19:21:20.121Z,98358.09
2023-03-11T19:23:50.329Z,98375.22
2023-03-11T19:26:18.791Z,98364.06
2023-03-11T19:28:46.821Z,98359.75
2023-03-11T19:31:15.410Z,98364.06
2023-03-11T19:33:47.246Z,98364.91
2023-03-11T19:36:15.468Z,98371.75
2023-03-11T19:38:43.993Z,98360.63
2023-03-11T19:41:15.010Z,98372.56
2023-03-11T19:43:43.686Z,98382.03
2023-03-11T19:46:14.704Z,98373.47
2023-03-11T19:48:42.948Z,98370.87
2023-03-11T19:51:12.454Z,98384.53
2023-03-11T19:53:43.719Z,98394.81
2023-03-11T19:56:12.504Z,98383.66
2023-03-11T19:58:42.842Z,98385.41
2023-03-11T20:01:31.610Z,98379.31
2023-03-11T20:04:00.172Z,98369.00
2023-03-11T20:06:28.592Z,98359.72
2023-03-11T20:08:56.910Z,98352.66
2023-03-11T20:11:25.492Z,98333.91
2023-03-11T20:13:53.745Z,98348.38
2023-03-11T20:16:22.875Z,98342.38
2023-03-11T20:18:51.818Z,98347.50
2023-03-11T20:21:20.046Z,98348.38
2023-03-11T20:23:49.294Z,98345.78
2023-03-11T20:26:19.394Z,98368.84
2023-03-11T20:28:47.700Z,98355.19
2023-03-11T20:31:21.636Z,98370.63
2023-03-11T20:33:51.187Z,98369.72
2023-03-11T20:36:22.753Z,98374.75
2023-03-11T20:38:53.143Z,98379.06
2023-03-11T20:41:23.534Z,98370.53
2023-03-11T20:43:53.343Z,98386.78
2023-03-11T20:46:22.032Z,98402.97
2023-03-11T20:48:50.932Z,98412.47
2023-03-11T20:51:20.966Z,98408.16
2023-03-11T20:53:49.408Z,98402.13
2023-03-11T20:56:23.911Z,98407.37
2023-03-11T20:58:53.435Z,98429.38
2023-03-11T21:01:27.526Z,98413.91
2023-03-11T21:03:58.305Z,98415.75
2023-03-11T21:06:31.603Z,98419.19
2023-03-11T21:09:02.040Z,98416.59
2023-03-11T21:11:30.242Z,98424.22
2023-03-11T21:13:59.026Z,98431.06
2023-03-11T21:16:28.467Z,98431.84
2023-03-11T21:18:56.765Z,98441.25
2023-03-11T21:21:25.165Z,98453.13
2023-03-11T21:23:53.819Z,98449.81
2023-03-11T21:26:21.990Z,98447.28
2023-03-11T21:28:50.170Z,98447.19
2023-03-11T21:31:21.650Z,98453.37
2023-03-11T21:33:53.348Z,98446.56
2023-03-11T21:36:22.765Z,98453.19
2023-03-11T21:38:51.162Z,98459.97
2023-03-11T21:41:20.434Z,98465.31
2023-03-11T21:43:49.346Z,98467.00
2023-03-11T21:46:19.956Z,98473.81
2023-03-11T21:48:48.724Z,98472.25
2023-03-11T21:51:18.208Z,98479.06
2023-03-11T21:53:46.711Z,98477.28
2023-03-11T21:56:15.748Z,98488.31
2023-03-11T21:58:44.227Z,98496.19
2023-03-11T22:01:12.560Z,98498.94
2023-03-11T22:03:41.451Z,98501.19
2023-03-11T22:06:11.883Z,98496.03
2023-03-11T22:08:41.400Z,98496.88
2023-03-11T22:11:17.962Z,98490.03
2023-03-11T22:13:52.080Z,98496.72
2023-03-11T22:16:21.609Z,98495.97
2023-03-11T22:18:51.106Z,98500.94
2023-03-11T22:21:21.031Z,98510.50
2023-03-11T22:23:49.587Z,98517.56
2023-03-11T22:26:18.132Z,98520.03
2023-03-11T22:28:46.371Z,98518.25
2023-03-11T22:31:15.905Z,98521.50
2023-03-11T22:33:44.580Z,98516.13
2023-03-11T22:36:12.895Z,98517.59
2023-03-11T22:38:44.415Z,98519.97
2023-03-11T22:41:14.179Z,98526.78
2023-03-11T22:43:42.331Z,98536.81
2023-03-11T22:46:10.570Z,98545.53
2023-03-11T22:48:39.243Z,98541.59
2023-03-11T22:51:07.437Z,98545.03
2023-03-11T22:53:35.604Z,98540.66
2023-03-11T22:56:12.284Z,98551.03
2023-03-11T22:58:40.799Z,98562.16
2023-03-11T23:01:10.208Z,98568.81
2023-03-11T23:03:39.104Z,98575.63
2023-03-11T23:06:09.246Z,98580.63
2023-03-11T23:08:37.904Z,98573.22
2023-03-11T23:11:09.019Z,98580.78
2023-03-11T23:13:38.311Z,98587.53
2023-03-11T23:16:14.370Z,98584.22
2023-03-11T23:18:43.972Z,98596.06
2023-03-11T23:21:22.875Z,98594.28
2023-03-11T23:23:51.449Z,98594.25
2023-03-11T23:26:20.601Z,98592.50
2023-03-11T23:28:51.370Z,98596.75
2023-03-11T23:31:21.503Z,98587.59
2023-03-11T23:33:49.941Z,98592.31
2023-03-11T23:36:20.259Z,98595.94
2023-03-11T23:38:51.073Z,98593.72
2023-03-11T23:41:24.069Z,98594.28
2023-03-11T23:43:52.569Z,98598.97
2023-03-11T23:46:20.671Z,98609.56
2023-03-11T23:48:49.077Z,98613.13
2023-03-11T23:51:17.663Z,98611.69
2023-03-11T23:53:45.931Z,98605.69
2023-03-11T23:56:17.372Z,98607.31
2023-03-11T23:58:46.714Z,98609.88
